sensor_id;sensor_type;location;lat;lon;timestamp;temperature;humidity
28075;DHT22;15385;51.088;6.572;2023-06-05T00:01:29;20.40;84.30
28075;DHT22;15385;51.088;6.572;2023-06-05T00:03:59;20.30;85.00
28075;DHT22;15385;51.088;6.572;2023-06-05T00:06:30;20.30;85.50
28075;DHT22;15385;51.088;6.572;2023-06-05T00:09:01;20.30;86.10
28075;DHT22;15385;51.088;6.572;2023-06-05T00:11:32;20.30;86.40
28075;DHT22;15385;51.088;6.572;2023-06-05T00:14:03;20.30;86.80
28075;DHT22;15385;51.088;6.572;2023-06-05T00:16:34;20.20;87.30
28075;DHT22;15385;51.088;6.572;2023-06-05T00:19:04;20.20;88.20
28075;DHT22;15385;51.088;6.572;2023-06-05T00:21:35;20.10;88.60
28075;DHT22;15385;51.088;6.572;2023-06-05T00:24:06;20.00;89.30
28075;DHT22;15385;51.088;6.572;2023-06-05T00:26:37;19.90;90.00
28075;DHT22;15385;51.088;6.572;2023-06-05T00:29:07;19.90;90.40
28075;DHT22;15385;51.088;6.572;2023-06-05T00:31:38;19.90;90.70
28075;DHT22;15385;51.088;6.572;2023-06-05T00:34:08;19.90;91.20
28075;DHT22;15385;51.088;6.572;2023-06-05T00:36:39;19.90;91.40
28075;DHT22;15385;51.088;6.572;2023-06-05T00:39:11;19.90;91.70
28075;DHT22;15385;51.088;6.572;2023-06-05T00:41:42;19.90;92.20
28075;DHT22;15385;51.088;6.572;2023-06-05T00:44:13;19.90;92.60
28075;DHT22;15385;51.088;6.572;2023-06-05T00:46:44;19.90;93.30
28075;DHT22;15385;51.088;6.572;2023-06-05T00:49:15;19.90;93.50
28075;DHT22;15385;51.088;6.572;2023-06-05T00:51:46;19.80;93.90
28075;DHT22;15385;51.088;6.572;2023-06-05T00:54:17;19.80;94.50
28075;DHT22;15385;51.088;6.572;2023-06-05T00:56:48;19.80;95.00
28075;DHT22;15385;51.088;6.572;2023-06-05T00:59:20;19.70;95.60
28075;DHT22;15385;51.088;6.572;2023-06-05T01:01:51;19.70;96.20
28075;DHT22;15385;51.088;6.572;2023-06-05T01:04:22;19.70;96.90
28075;DHT22;15385;51.088;6.572;2023-06-05T01:06:54;19.60;97.50
28075;DHT22;15385;51.088;6.572;2023-06-05T01:09:27;19.60;98.10
28075;DHT22;15385;51.088;6.572;2023-06-05T01:12:19;19.50;99.10
28075;DHT22;15385;51.088;6.572;2023-06-05T01:14:52;19.50;99.90
28075;DHT22;15385;51.088;6.572;2023-06-05T01:17:27;19.40;99.90
28075;DHT22;15385;51.088;6.572;2023-06-05T01:19:59;19.40;99.90
28075;DHT22;15385;51.088;6.572;2023-06-05T01:22:30;19.30;99.90
28075;DHT22;15385;51.088;6.572;2023-06-05T01:25:07;19.40;99.90
28075;DHT22;15385;51.088;6.572;2023-06-05T01:27:58;19.30;99.90
28075;DHT22;15385;51.088;6.572;2023-06-05T01:30:43;19.30;99.90
28075;DHT22;15385;51.088;6.572;2023-06-05T01:33:23;19.20;99.90
28075;DHT22;15385;51.088;6.572;2023-06-05T01:35:56;19.20;99.90
28075;DHT22;15385;51.088;6.572;2023-06-05T01:38:27;19.20;99.90
28075;DHT22;15385;51.088;6.572;2023-06-05T01:40:57;19.20;99.90
28075;DHT22;15385;51.088;6.572;2023-06-05T01:43:29;19.10;99.90
28075;DHT22;15385;51.088;6.572;2023-06-05T01:46:00;19.00;99.90
28075;DHT22;15385;51.088;6.572;2023-06-05T01:48:31;19.00;99.90
28075;DHT22;15385;51.088;6.572;2023-06-05T01:51:02;18.90;99.90
28075;DHT22;15385;51.088;6.572;2023-06-05T01:53:33;18.90;99.90
28075;DHT22;15385;51.088;6.572;2023-06-05T01:56:04;18.80;99.90
28075;DHT22;15385;51.088;6.572;2023-06-05T01:58:37;18.70;99.90
28075;DHT22;15385;51.088;6.572;2023-06-05T02:01:07;18.70;99.90
28075;DHT22;15385;51.088;6.572;2023-06-05T02:03:38;18.60;99.90
28075;DHT22;15385;51.088;6.572;2023-06-05T02:06:09;18.60;99.90
28075;DHT22;15385;51.088;6.572;2023-06-05T02:08:40;18.60;99.90
28075;DHT22;15385;51.088;6.572;2023-06-05T02:11:10;18.60;99.90
28075;DHT22;15385;51.088;6.572;2023-06-05T02:13:41;18.50;99.90
28075;DHT22;15385;51.088;6.572;2023-06-05T02:16:13;18.60;99.90
28075;DHT22;15385;51.088;6.572;2023-06-05T02:18:45;18.60;99.90
28075;DHT22;15385;51.088;6.572;2023-06-05T02:21:19;18.60;99.90
28075;DHT22;15385;51.088;6.572;2023-06-05T02:23:49;18.60;99.90
28075;DHT22;15385;51.088;6.572;2023-06-05T02:26:21;18.60;99.90
28075;DHT22;15385;51.088;6.572;2023-06-05T02:28:52;18.60;99.90
28075;DHT22;15385;51.088;6.572;2023-06-05T02:31:24;18.60;99.90
28075;DHT22;15385;51.088;6.572;2023-06-05T02:33:58;18.50;99.90
28075;DHT22;15385;51.088;6.572;2023-06-05T02:36:29;18.50;99.90
28075;DHT22;15385;51.088;6.572;2023-06-05T02:39:06;18.50;99.90
28075;DHT22;15385;51.088;6.572;2023-06-05T02:41:36;18.40;99.90
28075;DHT22;15385;51.088;6.572;2023-06-05T02:44:07;18.30;99.90
28075;DHT22;15385;51.088;6.572;2023-06-05T02:46:37;18.40;99.90
28075;DHT22;15385;51.088;6.572;2023-06-05T02:49:08;18.30;99.90
28075;DHT22;15385;51.088;6.572;2023-06-05T02:51:39;18.30;99.90
28075;DHT22;15385;51.088;6.572;2023-06-05T02:54:09;18.20;99.90
28075;DHT22;15385;51.088;6.572;2023-06-05T02:56:40;18.10;99.90
28075;DHT22;15385;51.088;6.572;2023-06-05T02:59:10;18.20;99.90
28075;DHT22;15385;51.088;6.572;2023-06-05T03:01:41;18.20;99.90
28075;DHT22;15385;51.088;6.572;2023-06-05T03:04:13;18.20;99.90
28075;DHT22;15385;51.088;6.572;2023-06-05T03:06:44;18.10;99.90
28075;DHT22;15385;51.088;6.572;2023-06-05T03:09:15;18.10;99.90
28075;DHT22;15385;51.088;6.572;2023-06-05T03:11:45;18.10;99.90
28075;DHT22;15385;51.088;6.572;2023-06-05T03:14:16;18.10;99.90
28075;DHT22;15385;51.088;6.572;2023-06-05T03:16:46;18.10;99.90
28075;DHT22;15385;51.088;6.572;2023-06-05T03:19:17;18.10;99.90
28075;DHT22;15385;51.088;6.572;2023-06-05T03:21:47;18.00;99.90
28075;DHT22;15385;51.088;6.572;2023-06-05T03:24:20;17.90;99.90
28075;DHT22;15385;51.088;6.572;2023-06-05T03:26:54;17.80;99.90
28075;DHT22;15385;51.088;6.572;2023-06-05T03:29:25;17.70;99.90
28075;DHT22;15385;51.088;6.572;2023-06-05T03:31:56;17.70;99.90
28075;DHT22;15385;51.088;6.572;2023-06-05T03:34:27;17.60;99.90
28075;DHT22;15385;51.088;6.572;2023-06-05T03:36:59;17.60;99.90
28075;DHT22;15385;51.088;6.572;2023-06-05T03:39:29;17.60;99.90
28075;DHT22;15385;51.088;6.572;2023-06-05T03:42:03;17.50;99.90
28075;DHT22;15385;51.088;6.572;2023-06-05T03:44:37;17.40;99.90
28075;DHT22;15385;51.088;6.572;2023-06-05T03:47:08;17.40;99.90
28075;DHT22;15385;51.088;6.572;2023-06-05T03:49:38;17.40;99.90
28075;DHT22;15385;51.088;6.572;2023-06-05T03:52:16;17.40;99.90
28075;DHT22;15385;51.088;6.572;2023-06-05T03:54:47;17.40;99.90
28075;DHT22;15385;51.088;6.572;2023-06-05T03:57:21;17.40;99.90
28075;DHT22;15385;51.088;6.572;2023-06-05T03:59:52;17.30;99.90
28075;DHT22;15385;51.088;6.572;2023-06-05T04:02:23;17.40;99.90
28075;DHT22;15385;51.088;6.572;2023-06-05T04:04:53;17.40;99.90
28075;DHT22;15385;51.088;6.572;2023-06-05T04:07:24;17.30;99.90
28075;DHT22;15385;51.088;6.572;2023-06-05T04:09:55;17.30;99.90
28075;DHT22;15385;51.088;6.572;2023-06-05T04:12:25;17.30;99.90
28075;DHT22;15385;51.088;6.572;2023-06-05T04:14:56;17.30;99.90
28075;DHT22;15385;51.088;6.572;2023-06-05T04:17:26;17.40;99.90
28075;DHT22;15385;51.088;6.572;2023-06-05T04:19:57;17.40;99.90
28075;DHT22;15385;51.088;6.572;2023-06-05T04:22:27;17.30;99.90
28075;DHT22;15385;51.088;6.572;2023-06-05T04:24:58;17.30;99.90
28075;DHT22;15385;51.088;6.572;2023-06-05T04:27:28;17.20;99.90
28075;DHT22;15385;51.088;6.572;2023-06-05T04:29:59;17.20;99.90
28075;DHT22;15385;51.088;6.572;2023-06-05T04:32:30;17.20;99.90
28075;DHT22;15385;51.088;6.572;2023-06-05T04:35:08;17.20;99.90
28075;DHT22;15385;51.088;6.572;2023-06-05T04:37:39;17.20;99.90
28075;DHT22;15385;51.088;6.572;2023-06-05T04:40:10;17.20;99.90
28075;DHT22;15385;51.088;6.572;2023-06-05T04:42:40;17.20;99.90
28075;DHT22;15385;51.088;6.572;2023-06-05T04:45:11;17.30;99.90
28075;DHT22;15385;51.088;6.572;2023-06-05T04:47:41;17.30;99.90
28075;DHT22;15385;51.088;6.572;2023-06-05T04:50:22;17.20;99.90
28075;DHT22;15385;51.088;6.572;2023-06-05T04:52:54;17.30;99.90
28075;DHT22;15385;51.088;6.572;2023-06-05T04:55:25;17.30;99.90
28075;DHT22;15385;51.088;6.572;2023-06-05T04:57:55;17.30;99.90
28075;DHT22;15385;51.088;6.572;2023-06-05T05:00:31;17.30;99.90
28075;DHT22;15385;51.088;6.572;2023-06-05T05:03:02;17.20;99.90
28075;DHT22;15385;51.088;6.572;2023-06-05T05:05:33;17.10;99.90
28075;DHT22;15385;51.088;6.572;2023-06-05T05:08:05;17.20;99.90
28075;DHT22;15385;51.088;6.572;2023-06-05T05:10:37;17.20;99.90
28075;DHT22;15385;51.088;6.572;2023-06-05T05:13:07;17.40;99.90
28075;DHT22;15385;51.088;6.572;2023-06-05T05:15:38;17.50;99.90
28075;DHT22;15385;51.088;6.572;2023-06-05T05:18:09;17.40;99.90
28075;DHT22;15385;51.088;6.572;2023-06-05T05:20:39;17.50;99.90
28075;DHT22;15385;51.088;6.572;2023-06-05T05:23:10;17.60;99.90
28075;DHT22;15385;51.088;6.572;2023-06-05T05:25:40;17.60;99.90
28075;DHT22;15385;51.088;6.572;2023-06-05T05:28:11;17.80;99.90
28075;DHT22;15385;51.088;6.572;2023-06-05T05:30:42;17.80;99.90
28075;DHT22;15385;51.088;6.572;2023-06-05T05:33:12;17.80;99.90
28075;DHT22;15385;51.088;6.572;2023-06-05T05:35:45;18.00;99.90
28075;DHT22;15385;51.088;6.572;2023-06-05T05:38:16;18.10;99.90
28075;DHT22;15385;51.088;6.572;2023-06-05T05:40:46;18.00;99.90
28075;DHT22;15385;51.088;6.572;2023-06-05T05:43:17;18.00;99.90
28075;DHT22;15385;51.088;6.572;2023-06-05T05:45:47;18.00;99.90
28075;DHT22;15385;51.088;6.572;2023-06-05T05:48:18;17.90;99.90
28075;DHT22;15385;51.088;6.572;2023-06-05T05:50:49;17.90;99.90
28075;DHT22;15385;51.088;6.572;2023-06-05T05:53:20;18.10;99.90
28075;DHT22;15385;51.088;6.572;2023-06-05T05:55:51;18.20;99.90
28075;DHT22;15385;51.088;6.572;2023-06-05T05:58:21;18.30;99.90
28075;DHT22;15385;51.088;6.572;2023-06-05T06:00:52;18.30;99.90
28075;DHT22;15385;51.088;6.572;2023-06-05T06:03:23;18.50;99.90
28075;DHT22;15385;51.088;6.572;2023-06-05T06:05:54;18.60;99.90
28075;DHT22;15385;51.088;6.572;2023-06-05T06:08:24;18.60;99.90
28075;DHT22;15385;51.088;6.572;2023-06-05T06:10:57;18.60;99.90
28075;DHT22;15385;51.088;6.572;2023-06-05T06:13:28;18.60;99.90
28075;DHT22;15385;51.088;6.572;2023-06-05T06:15:58;18.70;99.90
28075;DHT22;15385;51.088;6.572;2023-06-05T06:18:29;18.80;99.90
28075;DHT22;15385;51.088;6.572;2023-06-05T06:21:00;18.90;99.90
28075;DHT22;15385;51.088;6.572;2023-06-05T06:23:31;19.00;99.90
28075;DHT22;15385;51.088;6.572;2023-06-05T06:26:02;19.00;99.90
28075;DHT22;15385;51.088;6.572;2023-06-05T06:28:37;18.90;99.90
28075;DHT22;15385;51.088;6.572;2023-06-05T06:31:07;18.90;99.90
28075;DHT22;15385;51.088;6.572;2023-06-05T06:33:39;19.00;99.90
28075;DHT22;15385;51.088;6.572;2023-06-05T06:36:09;19.10;99.90
28075;DHT22;15385;51.088;6.572;2023-06-05T06:38:40;19.30;99.90
28075;DHT22;15385;51.088;6.572;2023-06-05T06:41:12;19.40;99.90
28075;DHT22;15385;51.088;6.572;2023-06-05T06:43:42;19.60;99.90
28075;DHT22;15385;51.088;6.572;2023-06-05T06:46:13;19.80;99.90
28075;DHT22;15385;51.088;6.572;2023-06-05T06:48:43;19.80;99.90
28075;DHT22;15385;51.088;6.572;2023-06-05T06:51:14;19.90;99.90
28075;DHT22;15385;51.088;6.572;2023-06-05T06:53:45;20.10;99.90
28075;DHT22;15385;51.088;6.572;2023-06-05T06:56:16;20.10;99.90
28075;DHT22;15385;51.088;6.572;2023-06-05T06:58:48;20.10;99.90
28075;DHT22;15385;51.088;6.572;2023-06-05T07:01:18;20.20;99.90
28075;DHT22;15385;51.088;6.572;2023-06-05T07:03:50;20.20;99.90
28075;DHT22;15385;51.088;6.572;2023-06-05T07:06:21;20.20;99.90
28075;DHT22;15385;51.088;6.572;2023-06-05T07:08:53;20.40;99.90
28075;DHT22;15385;51.088;6.572;2023-06-05T07:11:25;20.40;99.90
28075;DHT22;15385;51.088;6.572;2023-06-05T07:13:56;20.70;99.90
28075;DHT22;15385;51.088;6.572;2023-06-05T07:16:27;20.70;99.90
28075;DHT22;15385;51.088;6.572;2023-06-05T07:18:58;20.80;99.90
28075;DHT22;15385;51.088;6.572;2023-06-05T07:21:28;20.90;99.90
28075;DHT22;15385;51.088;6.572;2023-06-05T07:23:59;20.90;99.90
28075;DHT22;15385;51.088;6.572;2023-06-05T07:26:30;21.00;99.90
28075;DHT22;15385;51.088;6.572;2023-06-05T07:29:01;21.10;99.90
28075;DHT22;15385;51.088;6.572;2023-06-05T07:31:31;21.20;99.90
28075;DHT22;15385;51.088;6.572;2023-06-05T07:34:02;21.30;99.90
28075;DHT22;15385;51.088;6.572;2023-06-05T07:36:33;21.40;99.90
28075;DHT22;15385;51.088;6.572;2023-06-05T07:39:03;21.50;99.90
28075;DHT22;15385;51.088;6.572;2023-06-05T07:41:34;21.70;99.90
28075;DHT22;15385;51.088;6.572;2023-06-05T07:44:06;21.90;99.90
28075;DHT22;15385;51.088;6.572;2023-06-05T07:46:39;22.00;99.90
28075;DHT22;15385;51.088;6.572;2023-06-05T07:49:09;22.20;99.90
28075;DHT22;15385;51.088;6.572;2023-06-05T07:51:40;22.20;99.90
28075;DHT22;15385;51.088;6.572;2023-06-05T07:54:12;22.20;99.90
28075;DHT22;15385;51.088;6.572;2023-06-05T07:56:43;22.20;99.90
28075;DHT22;15385;51.088;6.572;2023-06-05T07:59:14;22.30;99.90
28075;DHT22;15385;51.088;6.572;2023-06-05T08:01:46;22.40;99.90
28075;DHT22;15385;51.088;6.572;2023-06-05T08:04:20;22.60;99.90
28075;DHT22;15385;51.088;6.572;2023-06-05T08:06:52;22.70;99.90
28075;DHT22;15385;51.088;6.572;2023-06-05T08:09:22;22.80;99.90
28075;DHT22;15385;51.088;6.572;2023-06-05T08:11:53;22.90;99.90
28075;DHT22;15385;51.088;6.572;2023-06-05T08:14:24;22.90;99.90
28075;DHT22;15385;51.088;6.572;2023-06-05T08:16:55;23.00;99.90
28075;DHT22;15385;51.088;6.572;2023-06-05T08:19:26;23.00;99.90
28075;DHT22;15385;51.088;6.572;2023-06-05T08:21:56;23.10;99.90
28075;DHT22;15385;51.088;6.572;2023-06-05T08:24:27;23.30;99.90
28075;DHT22;15385;51.088;6.572;2023-06-05T08:26:59;23.30;99.90
28075;DHT22;15385;51.088;6.572;2023-06-05T08:29:31;23.50;99.90
28075;DHT22;15385;51.088;6.572;2023-06-05T08:32:06;23.70;99.90
28075;DHT22;15385;51.088;6.572;2023-06-05T08:34:37;23.80;99.90
28075;DHT22;15385;51.088;6.572;2023-06-05T08:37:08;24.10;99.90
28075;DHT22;15385;51.088;6.572;2023-06-05T08:39:38;24.20;99.90
28075;DHT22;15385;51.088;6.572;2023-06-05T08:42:09;24.30;99.90
28075;DHT22;15385;51.088;6.572;2023-06-05T08:44:41;24.30;99.90
28075;DHT22;15385;51.088;6.572;2023-06-05T08:47:14;24.30;99.90
28075;DHT22;15385;51.088;6.572;2023-06-05T08:49:45;24.50;99.90
28075;DHT22;15385;51.088;6.572;2023-06-05T08:52:16;24.60;99.90
28075;DHT22;15385;51.088;6.572;2023-06-05T08:54:48;24.70;99.90
28075;DHT22;15385;51.088;6.572;2023-06-05T08:57:20;24.70;99.90
28075;DHT22;15385;51.088;6.572;2023-06-05T08:59:51;24.70;99.90
28075;DHT22;15385;51.088;6.572;2023-06-05T09:02:22;24.80;99.90
28075;DHT22;15385;51.088;6.572;2023-06-05T09:04:53;24.80;99.90
28075;DHT22;15385;51.088;6.572;2023-06-05T09:07:24;25.00;99.90
28075;DHT22;15385;51.088;6.572;2023-06-05T09:09:55;25.00;99.90
28075;DHT22;15385;51.088;6.572;2023-06-05T09:12:25;25.10;99.90
28075;DHT22;15385;51.088;6.572;2023-06-05T09:14:56;25.20;99.90
28075;DHT22;15385;51.088;6.572;2023-06-05T09:17:27;25.20;99.90
28075;DHT22;15385;51.088;6.572;2023-06-05T09:19:57;25.40;99.90
28075;DHT22;15385;51.088;6.572;2023-06-05T09:22:35;25.30;99.90
28075;DHT22;15385;51.088;6.572;2023-06-05T09:25:08;25.40;99.90
28075;DHT22;15385;51.088;6.572;2023-06-05T09:27:39;25.50;99.90
28075;DHT22;15385;51.088;6.572;2023-06-05T09:30:10;25.60;99.90
28075;DHT22;15385;51.088;6.572;2023-06-05T09:32:41;25.70;99.90
28075;DHT22;15385;51.088;6.572;2023-06-05T09:35:16;25.80;99.90
28075;DHT22;15385;51.088;6.572;2023-06-05T09:37:47;25.90;99.90
28075;DHT22;15385;51.088;6.572;2023-06-05T09:40:17;26.00;99.90
28075;DHT22;15385;51.088;6.572;2023-06-05T09:43:33;26.00;99.90
28075;DHT22;15385;51.088;6.572;2023-06-05T09:46:09;26.20;99.90
28075;DHT22;15385;51.088;6.572;2023-06-05T09:48:41;26.20;99.90
28075;DHT22;15385;51.088;6.572;2023-06-05T09:51:15;26.20;99.90
28075;DHT22;15385;51.088;6.572;2023-06-05T09:53:50;26.20;99.90
28075;DHT22;15385;51.088;6.572;2023-06-05T09:56:22;26.30;99.90
28075;DHT22;15385;51.088;6.572;2023-06-05T09:58:52;26.50;99.90
28075;DHT22;15385;51.088;6.572;2023-06-05T10:01:23;26.50;99.90
28075;DHT22;15385;51.088;6.572;2023-06-05T10:04:02;26.60;99.90
28075;DHT22;15385;51.088;6.572;2023-06-05T10:06:36;26.70;99.90
28075;DHT22;15385;51.088;6.572;2023-06-05T10:09:07;26.90;99.90
28075;DHT22;15385;51.088;6.572;2023-06-05T10:11:40;27.10;99.90
28075;DHT22;15385;51.088;6.572;2023-06-05T10:14:12;27.40;99.90
28075;DHT22;15385;51.088;6.572;2023-06-05T10:16:46;27.50;99.90
28075;DHT22;15385;51.088;6.572;2023-06-05T10:19:19;27.50;98.80
28075;DHT22;15385;51.088;6.572;2023-06-05T10:21:50;27.40;97.40
28075;DHT22;15385;51.088;6.572;2023-06-05T10:24:29;27.30;97.30
28075;DHT22;15385;51.088;6.572;2023-06-05T10:32:33;27.40;95.20
28075;DHT22;15385;51.088;6.572;2023-06-05T10:40:39;27.70;93.40
28075;DHT22;15385;51.088;6.572;2023-06-05T10:43:48;27.60;93.50
28075;DHT22;15385;51.088;6.572;2023-06-05T10:46:33;27.70;93.50
28075;DHT22;15385;51.088;6.572;2023-06-05T10:51:47;27.70;91.50
28075;DHT22;15385;51.088;6.572;2023-06-05T10:59:30;28.00;90.40
28075;DHT22;15385;51.088;6.572;2023-06-05T11:07:20;28.30;89.20
28075;DHT22;15385;51.088;6.572;2023-06-05T11:10:10;28.30;89.00
28075;DHT22;15385;51.088;6.572;2023-06-05T11:17:53;28.40;85.30
28075;DHT22;15385;51.088;6.572;2023-06-05T11:25:28;28.50;85.90
28075;DHT22;15385;51.088;6.572;2023-06-05T11:28:05;28.50;86.50
28075;DHT22;15385;51.088;6.572;2023-06-05T11:30:41;28.70;85.70
28075;DHT22;15385;51.088;6.572;2023-06-05T11:33:15;28.70;82.40
28075;DHT22;15385;51.088;6.572;2023-06-05T11:35:47;28.70;82.80
28075;DHT22;15385;51.088;6.572;2023-06-05T11:38:20;28.60;82.00
28075;DHT22;15385;51.088;6.572;2023-06-05T11:40:54;28.60;80.40
28075;DHT22;15385;51.088;6.572;2023-06-05T11:43:25;28.60;81.30
28075;DHT22;15385;51.088;6.572;2023-06-05T11:45:57;29.00;82.30
28075;DHT22;15385;51.088;6.572;2023-06-05T11:48:29;29.20;80.70
28075;DHT22;15385;51.088;6.572;2023-06-05T11:51:04;29.00;78.20
28075;DHT22;15385;51.088;6.572;2023-06-05T11:53:43;29.10;78.00
28075;DHT22;15385;51.088;6.572;2023-06-05T11:56:15;29.20;76.20
28075;DHT22;15385;51.088;6.572;2023-06-05T11:58:48;29.30;75.70
28075;DHT22;15385;51.088;6.572;2023-06-05T12:01:19;29.50;74.80
28075;DHT22;15385;51.088;6.572;2023-06-05T12:04:05;29.40;73.30
28075;DHT22;15385;51.088;6.572;2023-06-05T12:06:45;29.30;71.90
28075;DHT22;15385;51.088;6.572;2023-06-05T12:09:19;29.30;71.50
28075;DHT22;15385;51.088;6.572;2023-06-05T12:11:49;29.40;71.90
28075;DHT22;15385;51.088;6.572;2023-06-05T12:14:31;29.50;72.50
28075;DHT22;15385;51.088;6.572;2023-06-05T12:17:09;29.50;71.50
28075;DHT22;15385;51.088;6.572;2023-06-05T12:19:40;29.70;70.80
28075;DHT22;15385;51.088;6.572;2023-06-05T12:22:11;29.70;69.30
28075;DHT22;15385;51.088;6.572;2023-06-05T12:24:42;29.60;69.30
28075;DHT22;15385;51.088;6.572;2023-06-05T12:27:12;29.50;68.00
28075;DHT22;15385;51.088;6.572;2023-06-05T12:29:54;29.40;68.60
28075;DHT22;15385;51.088;6.572;2023-06-05T12:32:25;29.40;67.20
28075;DHT22;15385;51.088;6.572;2023-06-05T12:34:56;29.40;68.70
28075;DHT22;15385;51.088;6.572;2023-06-05T12:37:29;29.40;68.00
28075;DHT22;15385;51.088;6.572;2023-06-05T12:40:02;29.40;67.70
28075;DHT22;15385;51.088;6.572;2023-06-05T12:42:36;29.50;67.40
28075;DHT22;15385;51.088;6.572;2023-06-05T12:45:08;29.70;68.80
28075;DHT22;15385;51.088;6.572;2023-06-05T12:47:39;29.70;67.50
28075;DHT22;15385;51.088;6.572;2023-06-05T12:50:12;29.70;66.60
28075;DHT22;15385;51.088;6.572;2023-06-05T12:52:43;29.60;66.10
28075;DHT22;15385;51.088;6.572;2023-06-05T12:55:13;29.70;66.70
28075;DHT22;15385;51.088;6.572;2023-06-05T12:57:44;29.70;65.10
28075;DHT22;15385;51.088;6.572;2023-06-05T13:00:16;29.70;65.40
28075;DHT22;15385;51.088;6.572;2023-06-05T13:02:48;30.00;66.40
28075;DHT22;15385;51.088;6.572;2023-06-05T13:05:19;30.30;65.30
28075;DHT22;15385;51.088;6.572;2023-06-05T13:07:50;30.30;66.10
28075;DHT22;15385;51.088;6.572;2023-06-05T13:10:21;30.20;64.80
28075;DHT22;15385;51.088;6.572;2023-06-05T13:12:52;30.10;64.90
28075;DHT22;15385;51.088;6.572;2023-06-05T13:15:22;30.10;65.10
28075;DHT22;15385;51.088;6.572;2023-06-05T13:17:53;30.20;64.10
28075;DHT22;15385;51.088;6.572;2023-06-05T13:20:24;30.20;64.20
28075;DHT22;15385;51.088;6.572;2023-06-05T13:22:55;30.20;64.50
28075;DHT22;15385;51.088;6.572;2023-06-05T13:25:26;30.10;64.00
28075;DHT22;15385;51.088;6.572;2023-06-05T13:27:56;30.00;64.40
28075;DHT22;15385;51.088;6.572;2023-06-05T13:30:27;30.10;64.00
28075;DHT22;15385;51.088;6.572;2023-06-05T13:32:58;30.20;62.70
28075;DHT22;15385;51.088;6.572;2023-06-05T13:35:30;30.10;63.60
28075;DHT22;15385;51.088;6.572;2023-06-05T13:38:00;30.20;62.70
28075;DHT22;15385;51.088;6.572;2023-06-05T13:40:31;30.30;62.20
28075;DHT22;15385;51.088;6.572;2023-06-05T13:43:02;30.30;63.10
28075;DHT22;15385;51.088;6.572;2023-06-05T13:45:33;30.10;63.30
28075;DHT22;15385;51.088;6.572;2023-06-05T13:48:03;29.90;63.20
28075;DHT22;15385;51.088;6.572;2023-06-05T13:50:34;30.00;63.20
28075;DHT22;15385;51.088;6.572;2023-06-05T13:53:05;30.10;63.20
28075;DHT22;15385;51.088;6.572;2023-06-05T13:55:36;30.10;62.00
28075;DHT22;15385;51.088;6.572;2023-06-05T13:58:06;30.30;62.40
28075;DHT22;15385;51.088;6.572;2023-06-05T14:00:37;30.50;62.70
28075;DHT22;15385;51.088;6.572;2023-06-05T14:03:08;30.50;62.60
28075;DHT22;15385;51.088;6.572;2023-06-05T14:05:38;30.50;62.30
28075;DHT22;15385;51.088;6.572;2023-06-05T14:08:09;30.50;63.00
28075;DHT22;15385;51.088;6.572;2023-06-05T14:10:39;30.50;62.70
28075;DHT22;15385;51.088;6.572;2023-06-05T14:13:10;30.40;62.40
28075;DHT22;15385;51.088;6.572;2023-06-05T14:15:40;30.30;61.90
28075;DHT22;15385;51.088;6.572;2023-06-05T14:18:11;30.20;62.10
28075;DHT22;15385;51.088;6.572;2023-06-05T14:20:46;30.30;62.40
28075;DHT22;15385;51.088;6.572;2023-06-05T14:23:17;30.10;62.20
28075;DHT22;15385;51.088;6.572;2023-06-05T14:25:48;30.10;62.50
28075;DHT22;15385;51.088;6.572;2023-06-05T14:28:18;30.30;62.70
28075;DHT22;15385;51.088;6.572;2023-06-05T14:30:52;30.40;61.50
28075;DHT22;15385;51.088;6.572;2023-06-05T14:33:24;30.30;61.00
28075;DHT22;15385;51.088;6.572;2023-06-05T14:35:55;30.00;60.30
28075;DHT22;15385;51.088;6.572;2023-06-05T14:38:26;29.70;61.10
28075;DHT22;15385;51.088;6.572;2023-06-05T14:40:57;29.70;61.60
28075;DHT22;15385;51.088;6.572;2023-06-05T14:43:28;29.70;61.20
28075;DHT22;15385;51.088;6.572;2023-06-05T14:45:58;29.50;61.00
28075;DHT22;15385;51.088;6.572;2023-06-05T14:48:30;29.70;62.20
28075;DHT22;15385;51.088;6.572;2023-06-05T14:51:01;29.60;62.80
28075;DHT22;15385;51.088;6.572;2023-06-05T14:53:32;29.70;61.90
28075;DHT22;15385;51.088;6.572;2023-06-05T14:56:03;29.70;61.90
28075;DHT22;15385;51.088;6.572;2023-06-05T14:58:34;29.70;61.80
28075;DHT22;15385;51.088;6.572;2023-06-05T15:01:05;29.80;62.60
28075;DHT22;15385;51.088;6.572;2023-06-05T15:03:35;29.90;62.70
28075;DHT22;15385;51.088;6.572;2023-06-05T15:06:06;29.90;61.70
28075;DHT22;15385;51.088;6.572;2023-06-05T15:08:37;29.70;61.60
28075;DHT22;15385;51.088;6.572;2023-06-05T15:11:07;29.70;62.20
28075;DHT22;15385;51.088;6.572;2023-06-05T15:13:38;29.70;62.20
28075;DHT22;15385;51.088;6.572;2023-06-05T15:16:08;29.80;62.60
28075;DHT22;15385;51.088;6.572;2023-06-05T15:18:39;29.70;62.50
28075;DHT22;15385;51.088;6.572;2023-06-05T15:21:10;29.70;61.30
28075;DHT22;15385;51.088;6.572;2023-06-05T15:23:40;29.70;61.80
28075;DHT22;15385;51.088;6.572;2023-06-05T15:26:11;29.70;61.40
28075;DHT22;15385;51.088;6.572;2023-06-05T15:28:42;29.70;61.40
28075;DHT22;15385;51.088;6.572;2023-06-05T15:31:12;29.50;61.90
28075;DHT22;15385;51.088;6.572;2023-06-05T15:33:43;29.60;62.80
28075;DHT22;15385;51.088;6.572;2023-06-05T15:36:14;29.60;62.60
28075;DHT22;15385;51.088;6.572;2023-06-05T15:38:44;29.60;61.80
28075;DHT22;15385;51.088;6.572;2023-06-05T15:41:15;29.50;61.90
28075;DHT22;15385;51.088;6.572;2023-06-05T15:43:46;29.40;62.30
28075;DHT22;15385;51.088;6.572;2023-06-05T15:46:16;29.30;62.80
28075;DHT22;15385;51.088;6.572;2023-06-05T15:48:47;29.30;62.20
28075;DHT22;15385;51.088;6.572;2023-06-05T15:51:17;29.40;62.20
28075;DHT22;15385;51.088;6.572;2023-06-05T15:53:48;29.30;62.50
28075;DHT22;15385;51.088;6.572;2023-06-05T15:56:19;29.20;62.50
28075;DHT22;15385;51.088;6.572;2023-06-05T15:58:49;29.20;63.60
28075;DHT22;15385;51.088;6.572;2023-06-05T16:01:20;29.10;63.10
28075;DHT22;15385;51.088;6.572;2023-06-05T16:03:51;29.00;62.90
28075;DHT22;15385;51.088;6.572;2023-06-05T16:06:21;28.90;63.30
28075;DHT22;15385;51.088;6.572;2023-06-05T16:08:52;28.80;63.30
28075;DHT22;15385;51.088;6.572;2023-06-05T16:11:51;28.80;64.00
28075;DHT22;15385;51.088;6.572;2023-06-05T16:14:21;28.80;63.20
28075;DHT22;15385;51.088;6.572;2023-06-05T16:16:52;28.80;64.00
28075;DHT22;15385;51.088;6.572;2023-06-05T16:19:23;28.80;63.20
28075;DHT22;15385;51.088;6.572;2023-06-05T16:21:54;28.70;63.10
28075;DHT22;15385;51.088;6.572;2023-06-05T16:24:26;28.70;63.10
28075;DHT22;15385;51.088;6.572;2023-06-05T16:26:56;28.60;62.70
28075;DHT22;15385;51.088;6.572;2023-06-05T16:29:28;28.50;62.60
28075;DHT22;15385;51.088;6.572;2023-06-05T16:31:59;28.40;63.20
28075;DHT22;15385;51.088;6.572;2023-06-05T16:34:29;28.30;63.20